Time;durP1;ratioP1;P1;durP2;ratioP2;P2;SDS_P1;SDS_P2;PMS_P1;PMS_P2;Temp;Humidity;BMP_temperature;BMP_pressure;BME280_temperature;BME280_humidity;BME280_pressure;Samples;Min_cycle;Max_cycle;Signal;HPM_P1;HPM_P2
2021/05/07 00:01:32;;;;;;;3.72;0.70;;;17.90;31.50;;;;;;4373750;32;20112;-34
2021/05/07 00:04:00;;;;;;;0.80;0.60;;;17.90;31.60;;;;;;4373240;32;20145;-34
2021/05/07 00:06:28;;;;;;;2.67;0.70;;;17.90;31.80;;;;;;4373529;32;20061;-35
2021/05/07 00:08:55;;;;;;;2.28;0.52;;;17.90;31.90;;;;;;4373698;32;20080;-34
2021/05/07 00:11:22;;;;;;;1.55;0.57;;;17.90;32.10;;;;;;4373087;32;20062;-35
2021/05/07 00:13:49;;;;;;;1.35;0.68;;;17.80;32.20;;;;;;4373624;32;20629;-36
2021/05/07 00:16:15;;;;;;;0.93;0.70;;;17.80;32.40;;;;;;4373439;32;20137;-34
2021/05/07 00:18:43;;;;;;;2.60;0.70;;;17.70;32.50;;;;;;4371909;32;20081;-34
2021/05/07 00:21:10;;;;;;;1.70;0.65;;;17.70;32.70;;;;;;4371353;32;20545;-34
2021/05/07 00:23:36;;;;;;;1.73;0.65;;;17.60;32.80;;;;;;4373020;32;20082;-34
2021/05/07 00:26:03;;;;;;;2.62;0.70;;;17.60;32.80;;;;;;4373512;32;20062;-33
2021/05/07 00:28:30;;;;;;;4.10;0.60;;;17.60;32.90;;;;;;4353206;32;20614;-34
2021/05/07 00:31:04;;;;;;;1.23;0.80;;;17.50;32.90;;;;;;4353289;32;20646;-35
2021/05/07 00:33:32;;;;;;;0.98;0.73;;;17.50;33.10;;;;;;4341014;33;20191;-34
2021/05/07 00:35:58;;;;;;;1.30;0.73;;;17.40;33.10;;;;;;4341135;33;20078;-35
2021/05/07 00:38:24;;;;;;;3.87;0.88;;;17.30;33.30;;;;;;4340477;32;20062;-34
2021/05/07 00:40:51;;;;;;;1.83;0.73;;;17.30;33.40;;;;;;4323030;33;20583;-34
2021/05/07 00:43:17;;;;;;;1.92;0.73;;;17.30;33.60;;;;;;4311684;33;20075;-34
2021/05/07 00:45:44;;;;;;;2.03;0.82;;;17.30;33.50;;;;;;4311582;33;20093;-34
2021/05/07 00:48:12;;;;;;;4.78;0.60;;;17.30;33.50;;;;;;4311628;33;20086;-35
2021/05/07 00:50:40;;;;;;;0.75;0.60;;;17.30;33.50;;;;;;4322961;33;20525;-33
2021/05/07 00:53:07;;;;;;;2.37;0.60;;;17.40;33.50;;;;;;4311393;33;20082;-34
2021/05/07 00:55:35;;;;;;;0.85;0.65;;;17.30;33.50;;;;;;4311304;33;20134;-34
2021/05/07 00:58:01;;;;;;;3.55;0.85;;;17.30;33.50;;;;;;4311273;33;20189;-33
2021/05/07 01:00:31;;;;;;;1.15;0.50;;;17.30;33.60;;;;;;4341540;32;20075;-33
2021/05/07 01:03:00;;;;;;;1.20;0.60;;;17.20;33.70;;;;;;4359786;32;20545;-35
2021/05/07 01:05:27;;;;;;;3.37;0.50;;;17.20;34.00;;;;;;4360436;32;20151;-33
2021/05/07 01:07:54;;;;;;;2.70;0.60;;;17.10;34.20;;;;;;4360608;32;20085;-37
2021/05/07 01:10:20;;;;;;;1.90;0.70;;;17.00;34.20;;;;;;4348212;32;20140;-37
2021/05/07 01:12:47;;;;;;;1.98;0.60;;;16.90;34.20;;;;;;4375415;32;20082;-33
2021/05/07 01:15:17;;;;;;;6.57;0.80;;;16.90;34.30;;;;;;4375922;32;20455;-33
2021/05/07 01:17:46;;;;;;;3.10;0.50;;;16.80;34.40;;;;;;4377437;32;20431;-33
2021/05/07 01:20:18;;;;;;;4.28;0.77;;;16.80;34.20;;;;;;4377771;32;20459;-33
2021/05/07 01:22:48;;;;;;;1.80;0.60;;;16.70;34.30;;;;;;4377779;32;20066;-33
2021/05/07 01:25:18;;;;;;;1.70;0.60;;;16.70;34.40;;;;;;4378253;32;20131;-33
2021/05/07 01:27:48;;;;;;;2.03;0.47;;;16.70;34.40;;;;;;4377754;32;20494;-33
2021/05/07 01:30:20;;;;;;;1.50;0.65;;;16.70;34.40;;;;;;4377701;32;20082;-34
2021/05/07 01:32:47;;;;;;;5.70;0.98;;;16.70;34.50;;;;;;4377593;32;20166;-34
2021/05/07 01:35:20;;;;;;;1.23;0.60;;;16.80;34.40;;;;;;4377966;32;20074;-36
2021/05/07 01:37:48;;;;;;;1.62;0.65;;;16.80;34.30;;;;;;4378351;32;20070;-33
2021/05/07 01:40:28;;;;;;;4.05;0.68;;;16.90;34.20;;;;;;4377597;32;20157;-33
2021/05/07 01:42:55;;;;;;;2.10;0.77;;;17.00;34.30;;;;;;4377484;32;20186;-34
2021/05/07 01:45:29;;;;;;;3.67;0.90;;;17.10;34.20;;;;;;4363780;32;20073;-33
2021/05/07 01:47:56;;;;;;;5.75;1.10;;;17.20;34.10;;;;;;4377597;32;20152;-33
2021/05/07 01:50:28;;;;;;;6.18;1.00;;;17.40;34.00;;;;;;4363380;32;20088;-34
2021/05/07 01:52:55;;;;;;;2.28;0.80;;;17.60;33.70;;;;;;4377534;32;20102;-33
2021/05/07 01:55:30;;;;;;;1.83;0.70;;;17.80;33.50;;;;;;4377781;32;20125;-34
2021/05/07 01:57:58;;;;;;;5.57;0.80;;;18.00;33.10;;;;;;4377372;32;20062;-37
2021/05/07 02:00:28;;;;;;;5.78;0.80;;;18.20;32.80;;;;;;4377663;32;20531;-36
2021/05/07 02:02:56;;;;;;;3.12;0.70;;;18.40;32.50;;;;;;4377723;32;20055;-37
2021/05/07 02:05:23;;;;;;;1.83;0.95;;;18.70;32.20;;;;;;4377412;32;20097;-35
2021/05/07 02:07:50;;;;;;;5.72;1.17;;;18.90;31.90;;;;;;4377235;32;20066;-33
2021/05/07 02:10:19;;;;;;;5.20;0.88;;;19.10;31.60;;;;;;4377502;32;20069;-33
2021/05/07 02:12:46;;;;;;;2.30;1.00;;;19.40;31.30;;;;;;4377103;32;20537;-34
2021/05/07 02:15:16;;;;;;;2.17;0.93;;;19.60;31.00;;;;;;4375306;32;20065;-33
2021/05/07 02:17:43;;;;;;;1.73;0.93;;;19.90;30.50;;;;;;4383481;32;20182;-33
2021/05/07 02:20:12;;;;;;;2.05;0.80;;;20.30;30.30;;;;;;4389910;32;20146;-34
2021/05/07 02:22:40;;;;;;;3.33;1.15;;;20.50;29.90;;;;;;4388310;32;20069;-33
2021/05/07 02:25:08;;;;;;;5.10;0.80;;;20.80;29.60;;;;;;4388725;32;20091;-36
2021/05/07 02:27:34;;;;;;;2.25;1.00;;;21.10;29.30;;;;;;4390441;32;20092;-36
2021/05/07 02:30:01;;;;;;;1.55;0.88;;;21.30;29.10;;;;;;4390124;32;20073;-34
2021/05/07 02:32:27;;;;;;;2.40;1.10;;;21.60;28.90;;;;;;4389839;32;20061;-35
2021/05/07 02:34:54;;;;;;;2.12;0.82;;;21.80;28.40;;;;;;4390079;32;20568;-35
2021/05/07 02:37:20;;;;;;;7.22;1.20;;;22.10;28.30;;;;;;4389695;32;20085;-34
2021/05/07 02:39:47;;;;;;;3.37;1.17;;;22.30;28.10;;;;;;4389797;32;20066;-35
2021/05/07 02:42:13;;;;;;;6.37;1.73;;;22.60;27.70;;;;;;4389720;32;20061;-35
2021/05/07 02:44:40;;;;;;;3.80;1.15;;;22.80;27.40;;;;;;4389944;32;20107;-34
2021/05/07 02:47:06;;;;;;;6.45;1.05;;;23.10;27.20;;;;;;4390193;32;20460;-37
2021/05/07 02:49:36;;;;;;;2.47;1.00;;;23.40;27.00;;;;;;4374579;32;20171;-37
2021/05/07 02:52:03;;;;;;;4.78;1.35;;;23.70;26.80;;;;;;4387401;32;20540;-37
2021/05/07 02:54:33;;;;;;;4.90;1.15;;;24.10;26.50;;;;;;4362306;32;20595;-34
2021/05/07 02:57:00;;;;;;;8.30;1.75;;;24.30;26.30;;;;;;4386828;32;20182;-37
2021/05/07 02:59:27;;;;;;;4.15;1.20;;;24.70;26.10;;;;;;4387237;32;20080;-36
2021/05/07 03:01:54;;;;;;;2.95;1.37;;;25.00;25.90;;;;;;4386538;32;20069;-38
2021/05/07 03:04:20;;;;;;;3.05;1.05;;;25.30;25.60;;;;;;4387217;32;20166;-38
2021/05/07 03:06:48;;;;;;;5.80;1.35;;;25.60;25.30;;;;;;4374062;32;20647;-39
2021/05/07 03:09:14;;;;;;;2.05;0.85;;;25.80;25.20;;;;;;4373905;32;20089;-36
2021/05/07 03:11:41;;;;;;;3.87;1.00;;;26.10;25.00;;;;;;4387138;32;20543;-37
2021/05/07 03:14:08;;;;;;;5.50;1.33;;;26.30;24.70;;;;;;4386718;32;20513;-38
2021/05/07 03:16:34;;;;;;;1.83;1.42;;;26.40;24.50;;;;;;4385435;32;20077;-36
2021/05/07 03:19:04;;;;;;;4.30;1.20;;;26.50;24.40;;;;;;4371693;32;20145;-38
2021/05/07 03:21:31;;;;;;;3.45;0.80;;;26.60;24.20;;;;;;4359035;32;20137;-40
2021/05/07 03:23:58;;;;;;;6.62;1.12;;;26.60;24.20;;;;;;4371651;32;20070;-40
2021/05/07 03:26:25;;;;;;;1.50;0.73;;;26.80;24.10;;;;;;4371988;32;20081;-41
2021/05/07 03:28:51;;;;;;;2.42;0.80;;;26.90;24.00;;;;;;4374024;32;20156;-41
2021/05/07 03:31:18;;;;;;;6.00;0.90;;;27.10;23.90;;;;;;4374179;32;20534;-41
2021/05/07 03:33:45;;;;;;;7.20;1.10;;;27.20;23.60;;;;;;4374273;32;20117;-40
2021/05/07 03:36:11;;;;;;;5.35;1.10;;;27.40;23.70;;;;;;4373855;32;20070;-41
2021/05/07 03:38:38;;;;;;;2.37;0.90;;;27.60;23.60;;;;;;4341771;33;20153;-42
2021/05/07 03:41:04;;;;;;;2.58;0.95;;;27.70;23.90;;;;;;4341228;33;20603;-41
2021/05/07 03:43:31;;;;;;;4.28;0.80;;;27.90;23.30;;;;;;4341598;33;20177;-42
2021/05/07 03:45:57;;;;;;;2.60;0.85;;;28.00;23.10;;;;;;4341405;33;20495;-40
2021/05/07 03:48:24;;;;;;;5.47;1.37;;;28.20;23.00;;;;;;4341445;33;20074;-41
2021/05/07 03:50:51;;;;;;;1.08;0.60;;;28.40;23.10;;;;;;4340898;33;20070;-40
2021/05/07 03:53:18;;;;;;;0.95;0.52;;;28.60;22.90;;;;;;4341387;33;20071;-41
2021/05/07 03:55:44;;;;;;;1.12;0.60;;;28.70;22.70;;;;;;4341371;33;20087;-41
2021/05/07 03:58:11;;;;;;;5.10;0.80;;;28.90;22.60;;;;;;4341075;33;20066;-41
2021/05/07 04:00:38;;;;;;;2.90;0.70;;;29.10;22.60;;;;;;4341761;33;20159;-40
2021/05/07 04:03:05;;;;;;;0.90;0.52;;;29.30;22.60;;;;;;4328991;33;20074;-42
2021/05/07 04:05:32;;;;;;;1.30;0.50;;;29.40;22.30;;;;;;4341283;33;20619;-42
2021/05/07 04:08:12;;;;;;;1.77;0.60;;;29.50;22.10;;;;;;4341130;33;20085;-42
2021/05/07 04:10:44;;;;;;;2.35;0.60;;;29.60;22.20;;;;;;4341440;33;20067;-42
2021/05/07 04:13:53;;;;;;;3.53;0.57;;;29.70;22.10;;;;;;4341642;33;20070;-41
2021/05/07 04:16:00;;;;;;;1.15;0.40;;;29.80;22.20;;;;;;4352543;32;20063;-42
2021/05/07 04:18:27;;;;;;;3.25;0.70;;;29.80;22.20;;;;;;4371663;32;20072;-42
2021/05/07 04:20:54;;;;;;;1.55;0.40;;;29.90;22.20;;;;;;4373437;32;20097;-39
2021/05/07 04:23:20;;;;;;;0.88;0.40;;;29.90;22.10;;;;;;4373042;32;20478;-41
2021/05/07 04:25:47;;;;;;;0.80;0.50;;;30.00;21.90;;;;;;4372954;32;20157;-42
2021/05/07 04:28:13;;;;;;;1.75;0.50;;;30.10;21.90;;;;;;4372854;32;20156;-36
2021/05/07 04:30:40;;;;;;;7.05;0.80;;;30.30;21.80;;;;;;4371863;32;20222;-40
2021/05/07 04:33:06;;;;;;;4.07;0.60;;;30.40;21.90;;;;;;4373295;32;20062;-42
2021/05/07 04:35:33;;;;;;;1.70;0.60;;;30.50;21.70;;;;;;4371084;32;20077;-42
2021/05/07 04:37:59;;;;;;;0.70;0.50;;;30.60;21.80;;;;;;4372768;32;20080;-42
2021/05/07 04:40:26;;;;;;;4.07;0.68;;;30.70;21.60;;;;;;4373383;32;20066;-42
2021/05/07 04:42:52;;;;;;;2.28;0.88;;;30.80;21.60;;;;;;4371066;32;20085;-42
2021/05/07 04:45:25;;;;;;;2.85;0.50;;;30.90;21.60;;;;;;4373210;32;20514;-42
2021/05/07 04:47:55;;;;;;;0.65;0.40;;;31.10;21.70;;;;;;4372858;32;20062;-40
2021/05/07 04:50:21;;;;;;;2.10;0.47;;;31.10;21.60;;;;;;4371322;32;20077;-42
2021/05/07 04:52:48;;;;;;;8.32;1.00;;;31.20;21.50;;;;;;4373014;32;20086;-40
2021/05/07 04:55:15;;;;;;;4.68;1.10;;;31.30;21.50;;;;;;4372971;32;20466;-37
2021/05/07 04:57:42;;;;;;;4.03;1.10;;;31.30;21.50;;;;;;4373281;32;20065;-41
2021/05/07 05:00:09;;;;;;;5.60;1.55;;;31.30;21.60;;;;;;4372734;32;20066;-41
2021/05/07 05:02:36;;;;;;;2.20;0.80;;;31.20;21.80;;;;;;4371255;32;20595;-42
2021/05/07 05:05:04;;;;;;;2.05;0.70;;;31.00;21.80;;;;;;4372437;32;20529;-42
2021/05/07 05:07:30;;;;;;;4.15;0.50;;;30.90;21.70;;;;;;4372915;32;20166;-43
2021/05/07 05:09:57;;;;;;;3.58;0.40;;;30.80;21.60;;;;;;4373086;32;20161;-42
2021/05/07 05:12:23;;;;;;;3.17;0.52;;;30.60;22.10;;;;;;4372733;32;20097;-42
2021/05/07 05:14:50;;;;;;;1.87;0.47;;;30.40;21.30;;;;;;4372919;32;20169;-42
2021/05/07 05:17:16;;;;;;;2.37;0.70;;;30.20;21.50;;;;;;4372522;32;20058;-39
2021/05/07 05:19:45;;;;;;;2.85;0.60;;;30.00;21.50;;;;;;4372462;32;20076;-39
2021/05/07 05:22:12;;;;;;;5.47;0.82;;;29.80;21.50;;;;;;4372601;32;20062;-40
2021/05/07 05:24:38;;;;;;;1.42;0.80;;;29.60;21.80;;;;;;4371227;32;20169;-41
2021/05/07 05:27:05;;;;;;;2.65;0.90;;;29.40;21.80;;;;;;4372440;32;20070;-42
2021/05/07 05:29:31;;;;;;;3.47;0.75;;;29.30;22.20;;;;;;4372583;32;20062;-41
2021/05/07 05:31:58;;;;;;;2.78;0.77;;;29.20;22.20;;;;;;4372676;32;20552;-41
2021/05/07 05:34:24;;;;;;;2.17;0.70;;;29.20;22.30;;;;;;4371106;32;20511;-41
2021/05/07 05:36:51;;;;;;;1.23;0.80;;;29.20;22.30;;;;;;4372711;32;20093;-41
2021/05/07 05:39:17;;;;;;;4.80;0.60;;;29.20;22.30;;;;;;4371079;32;20455;-36
2021/05/07 05:41:44;;;;;;;1.65;0.68;;;29.10;23.00;;;;;;4372884;32;20083;-41
2021/05/07 05:44:10;;;;;;;1.02;0.60;;;29.10;22.40;;;;;;4372775;32;20595;-42
2021/05/07 05:46:37;;;;;;;4.70;0.70;;;29.20;22.60;;;;;;4372763;32;20065;-41
2021/05/07 05:49:05;;;;;;;6.00;0.80;;;29.30;22.70;;;;;;4374664;32;20100;-40
2021/05/07 05:51:32;;;;;;;3.80;0.90;;;29.40;22.60;;;;;;4375477;32;20089;-41
2021/05/07 05:53:59;;;;;;;4.47;0.80;;;29.70;22.50;;;;;;4373688;32;20107;-42
2021/05/07 05:56:25;;;;;;;2.95;0.80;;;29.80;22.40;;;;;;4374991;32;20607;-41
2021/05/07 05:58:52;;;;;;;3.05;0.77;;;30.00;22.90;;;;;;4375527;32;20054;-41
2021/05/07 06:01:18;;;;;;;1.23;0.60;;;30.10;22.30;;;;;;4375607;32;20069;-36
2021/05/07 06:03:45;;;;;;;1.83;0.80;;;30.10;22.30;;;;;;4375389;32;20618;-41
2021/05/07 06:06:11;;;;;;;2.17;0.90;;;30.10;22.10;;;;;;4375295;32;20072;-42
2021/05/07 06:08:38;;;;;;;5.80;0.98;;;30.20;22.20;;;;;;4375251;32;20145;-42
2021/05/07 06:11:04;;;;;;;7.15;0.80;;;30.20;22.20;;;;;;4375193;32;20061;-41
2021/05/07 06:13:31;;;;;;;3.00;1.12;;;30.30;22.20;;;;;;4374591;32;20133;-41
2021/05/07 06:15:57;;;;;;;2.20;0.85;;;30.50;22.10;;;;;;4374857;32;20603;-41
2021/05/07 06:18:24;;;;;;;2.25;0.85;;;30.70;22.00;;;;;;4373647;32;20065;-41
2021/05/07 06:20:50;;;;;;;5.87;0.85;;;30.90;22.00;;;;;;4375113;32;20078;-40
2021/05/07 06:23:17;;;;;;;1.30;0.57;;;30.90;21.80;;;;;;4375023;32;20514;-42
2021/05/07 06:25:43;;;;;;;4.50;0.52;;;31.00;21.70;;;;;;4374476;32;20088;-40
2021/05/07 06:28:10;;;;;;;1.23;0.60;;;31.00;21.60;;;;;;4375207;32;20121;-42
2021/05/07 06:30:36;;;;;;;3.90;0.50;;;31.10;21.40;;;;;;4374790;32;20560;-41
2021/05/07 06:33:03;;;;;;;2.47;0.70;;;31.20;21.40;;;;;;4375055;32;20435;-42
2021/05/07 06:35:30;;;;;;;4.47;0.70;;;31.30;21.40;;;;;;4374601;32;20086;-43
2021/05/07 06:37:59;;;;;;;0.90;0.57;;;31.40;21.90;;;;;;4374447;32;20510;-41
2021/05/07 06:40:25;;;;;;;0.70;0.40;;;31.40;21.30;;;;;;4374800;32;20082;-43
2021/05/07 06:42:52;;;;;;;1.10;0.50;;;31.40;21.10;;;;;;4374983;32;20058;-40
2021/05/07 06:45:18;;;;;;;3.42;0.40;;;31.50;21.00;;;;;;4374717;32;20064;-42
2021/05/07 06:47:45;;;;;;;0.70;0.30;;;31.50;21.10;;;;;;4374561;32;20065;-41
2021/05/07 06:50:12;;;;;;;4.32;1.75;;;31.40;20.90;;;;;;4374298;32;20287;-44
2021/05/07 06:52:42;;;;;;;0.60;0.30;;;31.30;21.20;;;;;;4373203;32;20098;-42
2021/05/07 06:55:11;;;;;;;1.37;0.40;;;31.30;21.20;;;;;;4374539;32;20165;-42
2021/05/07 06:57:38;;;;;;;2.28;0.40;;;31.20;21.10;;;;;;4374486;32;20147;-43
2021/05/07 07:00:08;;;;;;;0.68;0.40;;;31.20;21.30;;;;;;4372121;32;20065;-42
2021/05/07 07:02:34;;;;;;;5.53;0.50;;;31.10;21.10;;;;;;4374381;32;20171;-43
2021/05/07 07:05:01;;;;;;;5.20;0.50;;;31.00;21.30;;;;;;4374572;32;20084;-41
2021/05/07 07:07:28;;;;;;;2.03;0.30;;;31.00;21.40;;;;;;4374129;32;20138;-43
2021/05/07 07:09:54;;;;;;;0.70;0.37;;;31.00;21.20;;;;;;4373775;32;20059;-40
2021/05/07 07:12:21;;;;;;;1.73;0.30;;;31.10;21.20;;;;;;4372930;32;20069;-43
2021/05/07 07:14:48;;;;;;;5.75;0.45;;;31.10;21.00;;;;;;4374185;32;20101;-42
2021/05/07 07:17:16;;;;;;;1.98;0.70;;;31.10;21.10;;;;;;4363222;32;20092;-41
2021/05/07 07:19:42;;;;;;;0.55;0.30;;;31.10;21.00;;;;;;4374410;32;20117;-42
2021/05/07 07:22:09;;;;;;;0.93;0.35;;;31.10;21.00;;;;;;4355892;32;20089;-42
2021/05/07 07:24:36;;;;;;;2.70;0.43;;;31.00;21.00;;;;;;4356258;32;20568;-41
2021/05/07 07:27:02;;;;;;;2.60;0.30;;;30.90;21.00;;;;;;4356277;32;20077;-42
2021/05/07 07:29:29;;;;;;;0.65;0.30;;;30.80;21.20;;;;;;4356686;32;20155;-42
2021/05/07 07:31:55;;;;;;;2.55;0.30;;;30.70;21.10;;;;;;4356382;32;20116;-42
2021/05/07 07:34:21;;;;;;;1.45;0.40;;;30.60;21.30;;;;;;4356567;32;20511;-40
2021/05/07 07:36:48;;;;;;;3.03;0.60;;;30.40;21.30;;;;;;4356459;32;20083;-42
2021/05/07 07:39:19;;;;;;;1.85;0.30;;;30.30;21.30;;;;;;4356930;32;20546;-41
2021/05/07 07:41:49;;;;;;;7.03;0.50;;;30.10;21.50;;;;;;4356125;32;20067;-40
2021/05/07 07:44:17;;;;;;;0.70;0.30;;;29.90;21.60;;;;;;4356640;32;20525;-41
2021/05/07 07:46:44;;;;;;;0.57;0.20;;;29.70;21.70;;;;;;4356403;32;20112;-41
2021/05/07 07:49:11;;;;;;;1.45;0.40;;;29.50;21.80;;;;;;4356242;32;20066;-41
2021/05/07 07:51:38;;;;;;;1.50;0.40;;;29.40;21.90;;;;;;4355526;32;20074;-39
2021/05/07 07:54:06;;;;;;;6.90;0.40;;;29.30;22.10;;;;;;4355823;32;20109;-41
2021/05/07 07:56:34;;;;;;;0.68;0.40;;;29.40;22.20;;;;;;4343873;32;20533;-42
2021/05/07 07:59:01;;;;;;;0.50;0.40;;;29.50;22.00;;;;;;4360118;32;20063;-40
2021/05/07 08:01:28;;;;;;;1.15;0.40;;;29.80;22.20;;;;;;4372762;32;20531;-41
2021/05/07 08:03:55;;;;;;;6.15;0.60;;;30.10;21.90;;;;;;4373857;32;20065;-42
2021/05/07 08:06:23;;;;;;;0.50;0.30;;;30.30;21.70;;;;;;4373611;32;20068;-42
2021/05/07 08:08:50;;;;;;;4.00;0.40;;;30.40;21.40;;;;;;4373174;32;20075;-43
2021/05/07 08:11:17;;;;;;;4.97;0.35;;;30.40;21.30;;;;;;4373115;32;20086;-40
2021/05/07 08:13:43;;;;;;;4.20;0.40;;;30.40;21.50;;;;;;4371493;32;20435;-40
2021/05/07 08:16:11;;;;;;;0.77;0.40;;;30.40;21.50;;;;;;4373262;32;20117;-41
2021/05/07 08:18:37;;;;;;;4.40;0.40;;;30.40;21.60;;;;;;4387600;32;20154;-39
2021/05/07 08:21:04;;;;;;;1.05;0.32;;;30.40;21.60;;;;;;4387886;32;20083;-41
2021/05/07 08:23:31;;;;;;;1.15;0.30;;;30.50;21.30;;;;;;4386577;32;20072;-39
2021/05/07 08:25:57;;;;;;;4.65;0.40;;;30.50;21.20;;;;;;4388086;32;20061;-39
2021/05/07 08:28:24;;;;;;;3.78;0.60;;;30.40;21.30;;;;;;4388529;32;20090;-41
2021/05/07 08:30:51;;;;;;;0.30;0.30;;;30.30;21.30;;;;;;4388116;32;20062;-40
2021/05/07 08:33:17;;;;;;;2.72;0.40;;;30.20;21.40;;;;;;4388240;32;20100;-40
2021/05/07 08:35:44;;;;;;;0.65;0.30;;;30.10;21.50;;;;;;4387843;32;20216;-41
2021/05/07 08:38:11;;;;;;;1.05;0.30;;;29.90;21.40;;;;;;4388235;32;20069;-40
2021/05/07 08:40:38;;;;;;;2.35;0.40;;;29.90;21.30;;;;;;4387660;32;20107;-43
2021/05/07 08:43:10;;;;;;;1.23;0.40;;;29.70;21.30;;;;;;4386193;32;20129;-40
2021/05/07 08:45:37;;;;;;;0.75;0.45;;;29.60;21.70;;;;;;4387887;32;20112;-40
2021/05/07 08:48:05;;;;;;;2.37;0.30;;;29.70;21.70;;;;;;4357386;32;20074;-40
2021/05/07 08:50:33;;;;;;;0.60;0.30;;;29.80;21.20;;;;;;4370216;32;20074;-41
2021/05/07 08:53:00;;;;;;;0.50;0.30;;;29.90;21.20;;;;;;4370485;32;20062;-40
2021/05/07 08:55:26;;;;;;;2.50;0.40;;;30.00;21.20;;;;;;4358239;32;20100;-41
2021/05/07 08:57:53;;;;;;;0.40;0.30;;;30.00;21.70;;;;;;4357981;32;20140;-38
2021/05/07 09:00:20;;;;;;;1.52;0.57;;;30.10;21.10;;;;;;4370310;32;20097;-38
2021/05/07 09:02:47;;;;;;;1.62;0.30;;;30.20;20.80;;;;;;4357872;32;20069;-41
2021/05/07 09:05:13;;;;;;;1.85;0.30;;;30.20;20.80;;;;;;4358047;32;20073;-40
2021/05/07 09:07:40;;;;;;;1.95;0.40;;;30.20;20.80;;;;;;4370297;32;20519;-42
2021/05/07 09:10:07;;;;;;;0.65;0.43;;;30.20;20.90;;;;;;4357784;32;20131;-41
2021/05/07 09:12:39;;;;;;;2.58;0.40;;;30.20;20.90;;;;;;4370109;32;20065;-41
2021/05/07 09:15:08;;;;;;;2.83;0.50;;;30.20;21.00;;;;;;4370168;32;20101;-42
2021/05/07 09:17:36;;;;;;;5.90;0.60;;;30.20;20.90;;;;;;4362024;32;20542;-41
2021/05/07 09:20:13;;;;;;;2.87;0.40;;;30.30;20.80;;;;;;4355146;32;20082;-41
2021/05/07 09:22:41;;;;;;;0.60;0.32;;;30.40;20.70;;;;;;4355940;32;20093;-40
2021/05/07 09:25:17;;;;;;;5.82;0.52;;;30.40;20.60;;;;;;4364056;32;20062;-41
2021/05/07 09:27:45;;;;;;;2.22;0.30;;;30.40;20.60;;;;;;4375786;32;20058;-40
2021/05/07 09:30:24;;;;;;;1.80;0.40;;;30.50;20.50;;;;;;4375609;32;20147;-40
2021/05/07 09:32:52;;;;;;;1.67;0.50;;;30.70;20.20;;;;;;4375578;32;20113;-40
2021/05/07 09:35:19;;;;;;;3.47;0.45;;;30.90;20.10;;;;;;4375431;32;20154;-41
2021/05/07 09:37:46;;;;;;;5.05;0.40;;;31.10;19.90;;;;;;4375717;32;20121;-39
2021/05/07 09:40:19;;;;;;;2.58;0.30;;;31.20;19.90;;;;;;4375589;32;20070;-42
2021/05/07 09:42:45;;;;;;;5.60;0.57;;;31.20;19.70;;;;;;4375406;32;20066;-39
2021/05/07 09:45:25;;;;;;;5.53;0.32;;;31.20;19.70;;;;;;4375334;32;20069;-42
2021/05/07 09:47:53;;;;;;;2.90;0.93;;;31.40;19.90;;;;;;4375351;32;20089;-42
2021/05/07 09:50:31;;;;;;;1.10;0.40;;;31.70;19.70;;;;;;4375379;32;20137;-42
2021/05/07 09:53:19;;;;;;;3.50;0.40;;;31.90;19.70;;;;;;4374005;32;20065;-42
2021/05/07 09:55:47;;;;;;;1.85;0.28;;;32.30;19.50;;;;;;4374951;32;20096;-43
2021/05/07 09:58:14;;;;;;;1.10;0.43;;;32.50;19.30;;;;;;4375271;32;20073;-42
2021/05/07 10:00:40;;;;;;;0.30;0.30;;;32.60;19.30;;;;;;4374675;32;20069;-41
2021/05/07 10:03:07;;;;;;;0.77;0.30;;;32.70;19.40;;;;;;4373754;32;20164;-41
2021/05/07 10:05:34;;;;;;;0.55;0.30;;;32.70;19.20;;;;;;4375137;32;20078;-41
2021/05/07 10:08:01;;;;;;;1.27;0.50;;;32.80;19.10;;;;;;4375174;32;20236;-43
2021/05/07 10:10:38;;;;;;;3.22;0.40;;;33.00;19.20;;;;;;4375237;32;20151;-42
2021/05/07 10:13:07;;;;;;;1.92;0.37;;;33.10;19.10;;;;;;4373467;32;20538;-42
2021/05/07 10:15:36;;;;;;;1.25;0.40;;;33.20;18.90;;;;;;4373566;32;20563;-39
2021/05/07 10:18:08;;;;;;;2.60;0.52;;;33.30;18.90;;;;;;4374440;32;20074;-36
2021/05/07 10:20:36;;;;;;;1.20;0.22;;;33.20;18.90;;;;;;4373218;32;20096;-41
2021/05/07 10:23:15;;;;;;;3.37;0.30;;;33.10;18.90;;;;;;4375411;32;20073;-42
2021/05/07 10:26:00;;;;;;;3.60;0.37;;;33.00;19.00;;;;;;4374640;32;20069;-42
2021/05/07 10:28:29;;;;;;;0.82;0.37;;;33.00;19.10;;;;;;4373330;32;20074;-42
2021/05/07 10:31:08;;;;;;;3.35;0.40;;;32.90;19.00;;;;;;4374920;32;20062;-39
2021/05/07 10:33:35;;;;;;;2.37;0.30;;;32.90;19.30;;;;;;4374369;32;20066;-42
2021/05/07 10:36:02;;;;;;;2.05;0.30;;;33.00;19.00;;;;;;4374262;32;20077;-42
2021/05/07 10:38:28;;;;;;;1.95;0.40;;;33.00;18.50;;;;;;4373122;32;20481;-42
2021/05/07 10:41:11;;;;;;;4.65;0.70;;;33.00;18.70;;;;;;4374566;32;20078;-42
2021/05/07 10:43:38;;;;;;;0.52;0.30;;;33.10;19.00;;;;;;4374480;32;20462;-42
2021/05/07 10:46:04;;;;;;;2.17;0.30;;;33.20;18.70;;;;;;4374375;32;20528;-36
2021/05/07 10:48:31;;;;;;;0.57;0.30;;;33.20;18.40;;;;;;4373051;32;20519;-41
2021/05/07 10:51:03;;;;;;;1.37;0.30;;;33.20;18.50;;;;;;4372480;32;20117;-41
2021/05/07 10:53:35;;;;;;;1.77;0.30;;;33.10;18.50;;;;;;4374497;32;20073;-41
2021/05/07 10:56:22;;;;;;;1.45;0.30;;;33.10;18.50;;;;;;4374559;32;20520;-42
2021/05/07 10:58:52;;;;;;;1.95;0.30;;;33.00;18.50;;;;;;4374232;32;20562;-41
2021/05/07 11:01:26;;;;;;;2.40;0.20;;;32.90;18.40;;;;;;4374428;32;20078;-40
2021/05/07 11:04:12;;;;;;;0.60;0.30;;;32.90;18.40;;;;;;4374446;32;20168;-41
2021/05/07 11:06:46;;;;;;;2.08;0.40;;;33.00;18.60;;;;;;4374378;32;20062;-43
2021/05/07 11:09:14;;;;;;;0.37;0.20;;;33.00;18.20;;;;;;4372430;32;20060;-42
2021/05/07 11:11:40;;;;;;;1.85;0.20;;;33.10;18.30;;;;;;4374138;32;20099;-41
2021/05/07 11:14:18;;;;;;;3.58;0.30;;;33.10;18.30;;;;;;4373697;32;20478;-41
2021/05/07 11:16:46;;;;;;;0.60;0.20;;;33.10;18.40;;;;;;4373970;32;20066;-42
2021/05/07 11:19:35;;;;;;;4.25;0.65;;;33.00;18.30;;;;;;4374193;32;20051;-42
2021/05/07 11:22:06;;;;;;;1.48;0.30;;;32.90;18.30;;;;;;4374043;32;20548;-42
2021/05/07 11:24:37;;;;;;;0.93;0.35;;;32.80;18.50;;;;;;4373912;32;20247;-42
2021/05/07 11:27:23;;;;;;;2.62;0.43;;;32.80;18.80;;;;;;4358782;32;20092;-43
2021/05/07 11:30:14;;;;;;;2.65;0.30;;;32.90;18.60;;;;;;4371619;32;20102;-42
2021/05/07 11:32:40;;;;;;;5.00;0.30;;;32.90;18.50;;;;;;4371319;32;20089;-42
2021/05/07 11:35:11;;;;;;;3.08;0.47;;;32.80;18.50;;;;;;4371178;32;20139;-43
2021/05/07 11:37:41;;;;;;;2.22;0.40;;;32.70;18.40;;;;;;4359077;32;20073;-41
2021/05/07 11:40:13;;;;;;;2.75;0.30;;;32.50;18.60;;;;;;4358954;32;20074;-34
2021/05/07 11:42:41;;;;;;;4.18;0.40;;;32.30;18.70;;;;;;4371344;32;20105;-40
2021/05/07 11:45:26;;;;;;;2.12;0.50;;;32.20;19.30;;;;;;4371039;32;20459;-35
2021/05/07 11:47:53;;;;;;;1.77;0.30;;;32.00;18.70;;;;;;4370692;32;20153;-43
2021/05/07 11:50:20;;;;;;;2.25;0.40;;;31.90;18.90;;;;;;4358265;32;20149;-40
2021/05/07 11:52:49;;;;;;;1.77;0.40;;;31.80;18.90;;;;;;4358934;32;20068;-38
2021/05/07 11:55:25;;;;;;;2.95;0.45;;;31.80;18.90;;;;;;4358572;32;20561;-39
2021/05/07 11:58:04;;;;;;;2.58;0.55;;;31.80;19.20;;;;;;4371513;32;20082;-39
2021/05/07 12:00:31;;;;;;;3.12;0.30;;;31.70;19.20;;;;;;4373436;32;20055;-40
2021/05/07 12:03:02;;;;;;;3.03;0.30;;;31.60;19.20;;;;;;4373599;32;20068;-43
2021/05/07 12:05:32;;;;;;;1.37;0.25;;;31.50;19.10;;;;;;4373423;32;20109;-42
2021/05/07 12:07:59;;;;;;;0.77;0.40;;;31.50;19.20;;;;;;4373734;32;20121;-42
2021/05/07 12:10:27;;;;;;;7.05;0.40;;;31.50;19.20;;;;;;4359506;32;20065;-41
2021/05/07 12:12:57;;;;;;;0.88;0.30;;;31.50;19.10;;;;;;4371932;32;20184;-40
2021/05/07 12:15:48;;;;;;;3.20;0.30;;;31.50;19.20;;;;;;4373408;32;20142;-40
2021/05/07 12:18:22;;;;;;;3.72;0.30;;;31.50;19.20;;;;;;4372937;32;20061;-41
2021/05/07 12:20:51;;;;;;;1.98;0.32;;;31.50;19.00;;;;;;4373128;32;20077;-40
2021/05/07 12:23:17;;;;;;;3.60;0.50;;;31.40;19.00;;;;;;4373193;32;20065;-42
2021/05/07 12:25:46;;;;;;;3.80;0.70;;;31.30;19.10;;;;;;4371617;32;20077;-42
2021/05/07 12:28:14;;;;;;;1.67;0.37;;;31.20;19.20;;;;;;4373100;32;20077;-42
2021/05/07 12:30:44;;;;;;;3.05;0.50;;;31.10;19.10;;;;;;4373212;32;20082;-40
2021/05/07 12:33:22;;;;;;;3.65;0.70;;;31.10;19.40;;;;;;4373123;32;20521;-38
2021/05/07 12:36:00;;;;;;;3.70;0.40;;;31.00;19.40;;;;;;4373094;32;20251;-41
2021/05/07 12:38:38;;;;;;;5.18;0.50;;;30.90;19.30;;;;;;4372600;32;20150;-40
2021/05/07 12:41:12;;;;;;;1.73;0.30;;;30.90;19.30;;;;;;4372677;32;20525;-40
2021/05/07 12:43:40;;;;;;;;;;;30.90;19.50;;;;;;4371517;32;20505;-41
2021/05/07 12:46:07;;;;;;;2.65;0.75;;;31.00;20.00;;;;;;4372709;32;19974;-41
2021/05/07 12:48:33;;;;;;;4.50;0.82;;;31.00;19.40;;;;;;4358467;32;20064;-42
2021/05/07 12:51:08;;;;;;;4.80;0.40;;;30.90;19.60;;;;;;4371824;32;20145;-41
2021/05/07 12:53:37;;;;;;;3.55;0.40;;;30.90;19.60;;;;;;4370873;32;20139;-41
2021/05/07 12:56:04;;;;;;;3.45;0.32;;;30.90;19.70;;;;;;4372317;32;20069;-42